sensor_id;sensor_type;location;lat;lon;timestamp;pressure;altitude;pressure_sealevel;temperature;humidity
41531;BME280;58990;46.284;13.126;2022-08-30T00:00:37;99523.88;;;21.71;66.40
41531;BME280;58990;46.284;13.126;2022-08-30T00:03:22;99531.34;;;21.51;67.76
41531;BME280;58990;46.284;13.126;2022-08-30T00:05:49;99533.84;;;21.41;68.21
41531;BME280;58990;46.284;13.126;2022-08-30T00:08:15;99542.69;;;21.25;69.13
41531;BME280;58990;46.284;13.126;2022-08-30T00:10:41;99544.50;;;21.19;69.18
41531;BME280;58990;46.284;13.126;2022-08-30T00:13:08;99542.63;;;21.20;69.21
41531;BME280;58990;46.284;13.126;2022-08-30T00:15:37;99537.19;;;21.14;69.28
41531;BME280;58990;46.284;13.126;2022-08-30T00:18:03;99541.25;;;21.17;69.16
41531;BME280;58990;46.284;13.126;2022-08-30T00:20:30;99539.69;;;21.21;68.39
41531;BME280;58990;46.284;13.126;2022-08-30T00:22:56;99542.84;;;21.35;67.68
41531;BME280;58990;46.284;13.126;2022-08-30T00:25:23;99530.13;;;21.42;67.47
41531;BME280;58990;46.284;13.126;2022-08-30T00:27:49;99535.56;;;21.47;67.15
41531;BME280;58990;46.284;13.126;2022-08-30T00:30:15;99534.59;;;21.54;66.91
41531;BME280;58990;46.284;13.126;2022-08-30T00:32:41;99539.81;;;21.48;66.88
41531;BME280;58990;46.284;13.126;2022-08-30T00:35:09;99543.59;;;21.52;66.71
41531;BME280;58990;46.284;13.126;2022-08-30T00:37:36;99542.81;;;21.52;66.42
41531;BME280;58990;46.284;13.126;2022-08-30T00:40:03;99551.88;;;21.51;66.80
41531;BME280;58990;46.284;13.126;2022-08-30T00:42:30;99544.13;;;21.49;66.65
41531;BME280;58990;46.284;13.126;2022-08-30T00:44:57;99551.25;;;21.44;66.86
41531;BME280;58990;46.284;13.126;2022-08-30T00:47:22;99554.16;;;21.42;67.04
41531;BME280;58990;46.284;13.126;2022-08-30T00:49:51;99555.31;;;21.29;67.40
41531;BME280;58990;46.284;13.126;2022-08-30T00:52:18;99550.84;;;21.35;67.19
41531;BME280;58990;46.284;13.126;2022-08-30T00:54:47;99546.88;;;21.38;66.91
41531;BME280;58990;46.284;13.126;2022-08-30T00:57:14;99545.34;;;21.42;66.77
41531;BME280;58990;46.284;13.126;2022-08-30T00:59:42;99543.97;;;21.39;67.02
41531;BME280;58990;46.284;13.126;2022-08-30T01:02:10;99538.66;;;21.39;66.77
41531;BME280;58990;46.284;13.126;2022-08-30T01:04:36;99541.38;;;21.44;66.92
41531;BME280;58990;46.284;13.126;2022-08-30T01:07:05;99550.91;;;21.40;67.23
41531;BME280;58990;46.284;13.126;2022-08-30T01:09:32;99543.25;;;21.27;67.33
41531;BME280;58990;46.284;13.126;2022-08-30T01:11:58;99550.72;;;21.25;67.80
41531;BME280;58990;46.284;13.126;2022-08-30T01:14:24;99542.78;;;21.13;68.48
41531;BME280;58990;46.284;13.126;2022-08-30T01:16:50;99546.03;;;20.98;69.38
41531;BME280;58990;46.284;13.126;2022-08-30T01:25:00;99560.81;;;20.89;70.21
41531;BME280;58990;46.284;13.126;2022-08-30T01:27:28;99549.25;;;20.83;70.06
41531;BME280;58990;46.284;13.126;2022-08-30T01:29:55;99542.28;;;20.82;70.02
41531;BME280;58990;46.284;13.126;2022-08-30T01:32:27;99544.63;;;20.78;70.21
41531;BME280;58990;46.284;13.126;2022-08-30T01:34:57;99549.31;;;20.71;70.83
41531;BME280;58990;46.284;13.126;2022-08-30T01:37:26;99550.00;;;20.66;71.13
41531;BME280;58990;46.284;13.126;2022-08-30T01:39:52;99545.59;;;20.72;70.84
41531;BME280;58990;46.284;13.126;2022-08-30T01:42:19;99540.38;;;20.65;71.06
41531;BME280;58990;46.284;13.126;2022-08-30T01:44:45;99542.81;;;20.67;70.74
41531;BME280;58990;46.284;13.126;2022-08-30T01:47:12;99540.63;;;20.64;71.02
41531;BME280;58990;46.284;13.126;2022-08-30T01:49:38;99540.94;;;20.67;70.83
41531;BME280;58990;46.284;13.126;2022-08-30T01:52:04;99535.75;;;20.61;71.07
41531;BME280;58990;46.284;13.126;2022-08-30T01:54:33;99529.88;;;20.59;70.81
41531;BME280;58990;46.284;13.126;2022-08-30T01:57:00;99530.66;;;20.59;70.76
41531;BME280;58990;46.284;13.126;2022-08-30T01:59:26;99528.72;;;20.55;71.02
41531;BME280;58990;46.284;13.126;2022-08-30T02:01:51;99532.19;;;20.55;70.62
41531;BME280;58990;46.284;13.126;2022-08-30T02:04:17;99522.91;;;20.58;70.64
41531;BME280;58990;46.284;13.126;2022-08-30T02:06:42;99521.28;;;20.57;70.66
41531;BME280;58990;46.284;13.126;2022-08-30T02:09:10;99527.59;;;20.50;70.98
41531;BME280;58990;46.284;13.126;2022-08-30T02:11:36;99532.78;;;20.57;70.39
41531;BME280;58990;46.284;13.126;2022-08-30T02:14:02;99531.28;;;20.49;70.80
41531;BME280;58990;46.284;13.126;2022-08-30T02:16:28;99521.69;;;20.48;70.82
41531;BME280;58990;46.284;13.126;2022-08-30T02:18:54;99515.41;;;20.55;70.61
41531;BME280;58990;46.284;13.126;2022-08-30T02:21:22;99522.25;;;20.50;70.49
41531;BME280;58990;46.284;13.126;2022-08-30T02:23:48;99515.88;;;20.52;70.02
41531;BME280;58990;46.284;13.126;2022-08-30T02:26:14;99507.25;;;20.61;69.46
41531;BME280;58990;46.284;13.126;2022-08-30T02:28:41;99520.59;;;20.61;69.41
41531;BME280;58990;46.284;13.126;2022-08-30T02:31:07;99507.34;;;20.66;69.17
41531;BME280;58990;46.284;13.126;2022-08-30T02:33:32;99513.00;;;20.70;68.85
41531;BME280;58990;46.284;13.126;2022-08-30T02:35:58;99509.66;;;20.63;69.31
41531;BME280;58990;46.284;13.126;2022-08-30T02:38:23;99515.34;;;20.66;68.73
41531;BME280;58990;46.284;13.126;2022-08-30T02:40:50;99507.91;;;20.69;69.00
41531;BME280;58990;46.284;13.126;2022-08-30T02:43:15;99506.56;;;20.54;69.51
41531;BME280;58990;46.284;13.126;2022-08-30T02:45:41;99507.88;;;20.52;69.72
41531;BME280;58990;46.284;13.126;2022-08-30T02:48:07;99515.78;;;20.46;69.86
41531;BME280;58990;46.284;13.126;2022-08-30T02:50:33;99520.53;;;20.44;70.28
41531;BME280;58990;46.284;13.126;2022-08-30T02:52:58;99518.84;;;20.38;70.51
41531;BME280;58990;46.284;13.126;2022-08-30T02:55:24;99513.75;;;20.37;70.98
41531;BME280;58990;46.284;13.126;2022-08-30T02:57:49;99515.88;;;20.23;71.35
41531;BME280;58990;46.284;13.126;2022-08-30T03:00:17;99513.56;;;20.26;71.40
41531;BME280;58990;46.284;13.126;2022-08-30T03:02:43;99518.16;;;20.31;70.75
41531;BME280;58990;46.284;13.126;2022-08-30T03:05:10;99522.09;;;20.28;70.91
41531;BME280;58990;46.284;13.126;2022-08-30T03:07:37;99515.03;;;20.34;70.06
41531;BME280;58990;46.284;13.126;2022-08-30T03:10:04;99514.91;;;20.41;69.87
41531;BME280;58990;46.284;13.126;2022-08-30T03:12:29;99519.41;;;20.40;70.25
41531;BME280;58990;46.284;13.126;2022-08-30T03:14:57;99522.88;;;20.41;70.08
41531;BME280;58990;46.284;13.126;2022-08-30T03:17:22;99521.56;;;20.43;69.72
41531;BME280;58990;46.284;13.126;2022-08-30T03:19:48;99520.63;;;20.49;69.54
41531;BME280;58990;46.284;13.126;2022-08-30T03:22:14;99522.75;;;20.47;69.42
41531;BME280;58990;46.284;13.126;2022-08-30T03:24:39;99526.06;;;20.55;69.21
41531;BME280;58990;46.284;13.126;2022-08-30T03:27:05;99517.47;;;20.53;69.17
41531;BME280;58990;46.284;13.126;2022-08-30T03:29:32;99524.94;;;20.50;69.10
41531;BME280;58990;46.284;13.126;2022-08-30T03:31:59;99515.31;;;20.49;69.05
41531;BME280;58990;46.284;13.126;2022-08-30T03:34:25;99516.94;;;20.50;68.67
41531;BME280;58990;46.284;13.126;2022-08-30T03:36:52;99525.47;;;20.53;68.56
41531;BME280;58990;46.284;13.126;2022-08-30T03:39:18;99527.59;;;20.50;68.95
41531;BME280;58990;46.284;13.126;2022-08-30T03:41:43;99525.78;;;20.39;69.32
41531;BME280;58990;46.284;13.126;2022-08-30T03:44:10;99531.59;;;20.36;69.46
41531;BME280;58990;46.284;13.126;2022-08-30T03:46:35;99537.41;;;20.33;69.84
41531;BME280;58990;46.284;13.126;2022-08-30T03:49:02;99540.06;;;20.33;69.98
41531;BME280;58990;46.284;13.126;2022-08-30T03:51:28;99551.78;;;20.32;70.09
41531;BME280;58990;46.284;13.126;2022-08-30T03:53:54;99543.66;;;20.27;70.12
41531;BME280;58990;46.284;13.126;2022-08-30T03:56:19;99546.56;;;20.25;70.15
41531;BME280;58990;46.284;13.126;2022-08-30T03:58:45;99553.78;;;20.25;70.40
41531;BME280;58990;46.284;13.126;2022-08-30T04:01:10;99551.00;;;20.20;70.62
41531;BME280;58990;46.284;13.126;2022-08-30T04:03:36;99551.50;;;20.16;70.77
41531;BME280;58990;46.284;13.126;2022-08-30T04:06:02;99552.41;;;20.10;70.96
41531;BME280;58990;46.284;13.126;2022-08-30T04:08:28;99558.34;;;20.12;71.03
41531;BME280;58990;46.284;13.126;2022-08-30T04:10:54;99561.44;;;20.09;71.41
41531;BME280;58990;46.284;13.126;2022-08-30T04:13:21;99559.84;;;20.08;71.17
41531;BME280;58990;46.284;13.126;2022-08-30T04:15:47;99560.19;;;20.00;71.58
41531;BME280;58990;46.284;13.126;2022-08-30T04:18:12;99572.97;;;19.98;72.01
41531;BME280;58990;46.284;13.126;2022-08-30T04:20:38;99569.25;;;19.99;71.76
41531;BME280;58990;46.284;13.126;2022-08-30T04:23:05;99577.69;;;19.96;71.95
41531;BME280;58990;46.284;13.126;2022-08-30T04:25:35;99580.34;;;19.96;72.00
41531;BME280;58990;46.284;13.126;2022-08-30T04:28:01;99583.25;;;19.94;71.77
41531;BME280;58990;46.284;13.126;2022-08-30T04:30:27;99586.16;;;19.93;71.68
41531;BME280;58990;46.284;13.126;2022-08-30T04:32:53;99576.66;;;19.97;71.87
41531;BME280;58990;46.284;13.126;2022-08-30T04:35:19;99577.81;;;20.01;71.28
41531;BME280;58990;46.284;13.126;2022-08-30T04:37:44;99578.16;;;20.05;71.37
41531;BME280;58990;46.284;13.126;2022-08-30T04:40:10;99580.00;;;20.04;71.09
41531;BME280;58990;46.284;13.126;2022-08-30T04:42:36;99578.50;;;20.08;71.06
41531;BME280;58990;46.284;13.126;2022-08-30T04:45:05;99583.34;;;20.11;71.06
41531;BME280;58990;46.284;13.126;2022-08-30T04:47:31;99580.69;;;20.11;70.88
41531;BME280;58990;46.284;13.126;2022-08-30T04:49:56;99586.25;;;20.10;70.89
41531;BME280;58990;46.284;13.126;2022-08-30T04:52:22;99583.00;;;20.08;71.01
41531;BME280;58990;46.284;13.126;2022-08-30T04:54:53;99583.00;;;20.08;71.08
41531;BME280;58990;46.284;13.126;2022-08-30T04:57:18;99580.94;;;20.10;71.27
41531;BME280;58990;46.284;13.126;2022-08-30T04:59:44;99586.81;;;20.12;70.59
41531;BME280;58990;46.284;13.126;2022-08-30T05:02:09;99586.56;;;20.13;70.94
41531;BME280;58990;46.284;13.126;2022-08-30T05:04:35;99591.09;;;20.13;71.04
41531;BME280;58990;46.284;13.126;2022-08-30T05:07:00;99593.06;;;20.17;70.53
41531;BME280;58990;46.284;13.126;2022-08-30T05:09:26;99591.47;;;20.16;70.25
41531;BME280;58990;46.284;13.126;2022-08-30T05:11:52;99592.00;;;20.19;70.37
41531;BME280;58990;46.284;13.126;2022-08-30T05:14:17;99594.69;;;20.19;70.57
41531;BME280;58990;46.284;13.126;2022-08-30T05:16:43;99600.22;;;20.29;70.01
41531;BME280;58990;46.284;13.126;2022-08-30T05:19:08;99601.16;;;20.23;70.50
41531;BME280;58990;46.284;13.126;2022-08-30T05:21:34;99609.63;;;20.20;70.61
41531;BME280;58990;46.284;13.126;2022-08-30T05:24:00;99612.50;;;20.30;70.08
41531;BME280;58990;46.284;13.126;2022-08-30T05:26:30;99616.09;;;20.36;69.71
41531;BME280;58990;46.284;13.126;2022-08-30T05:28:56;99616.19;;;20.41;69.93
41531;BME280;58990;46.284;13.126;2022-08-30T05:31:30;99621.47;;;20.53;69.10
41531;BME280;58990;46.284;13.126;2022-08-30T05:33:56;99612.75;;;20.57;69.13
41531;BME280;58990;46.284;13.126;2022-08-30T05:36:25;99612.63;;;20.64;68.34
41531;BME280;58990;46.284;13.126;2022-08-30T05:38:51;99602.16;;;20.74;67.99
41531;BME280;58990;46.284;13.126;2022-08-30T05:41:18;99606.53;;;20.80;66.99
41531;BME280;58990;46.284;13.126;2022-08-30T05:43:44;99609.22;;;20.80;67.12
41531;BME280;58990;46.284;13.126;2022-08-30T05:46:12;99613.22;;;20.95;66.69
41531;BME280;58990;46.284;13.126;2022-08-30T05:48:39;99611.25;;;20.90;67.22
41531;BME280;58990;46.284;13.126;2022-08-30T05:51:13;99618.28;;;22.65;61.71
41531;BME280;58990;46.284;13.126;2022-08-30T05:53:40;99615.38;;;25.47;52.51
41531;BME280;58990;46.284;13.126;2022-08-30T05:56:08;99619.97;;;27.23;47.42
41531;BME280;58990;46.284;13.126;2022-08-30T05:58:41;99616.75;;;28.47;43.71
41531;BME280;58990;46.284;13.126;2022-08-30T06:01:18;99625.16;;;29.16;42.24
41531;BME280;58990;46.284;13.126;2022-08-30T06:03:44;99626.44;;;29.38;41.58
41531;BME280;58990;46.284;13.126;2022-08-30T06:06:09;99627.59;;;29.65;40.92
41531;BME280;58990;46.284;13.126;2022-08-30T06:08:34;99621.44;;;30.57;38.81
41531;BME280;58990;46.284;13.126;2022-08-30T06:11:00;99627.59;;;30.34;39.51
41531;BME280;58990;46.284;13.126;2022-08-30T06:13:26;99633.72;;;30.26;38.94
41531;BME280;58990;46.284;13.126;2022-08-30T06:15:51;99628.53;;;27.25;45.23
41531;BME280;58990;46.284;13.126;2022-08-30T06:18:17;99627.19;;;25.00;51.16
41531;BME280;58990;46.284;13.126;2022-08-30T06:20:44;99626.59;;;23.61;55.79
41531;BME280;58990;46.284;13.126;2022-08-30T06:23:13;99624.84;;;23.12;57.71
41531;BME280;58990;46.284;13.126;2022-08-30T06:25:45;99619.25;;;22.81;59.45
41531;BME280;58990;46.284;13.126;2022-08-30T06:28:11;99617.31;;;22.76;59.47
41531;BME280;58990;46.284;13.126;2022-08-30T06:30:40;99614.09;;;22.74;59.86
41531;BME280;58990;46.284;13.126;2022-08-30T06:33:07;99611.44;;;22.79;58.82
41531;BME280;58990;46.284;13.126;2022-08-30T06:35:33;99609.44;;;22.92;59.19
41531;BME280;58990;46.284;13.126;2022-08-30T06:37:58;99607.31;;;23.64;57.41
41531;BME280;58990;46.284;13.126;2022-08-30T06:40:24;99598.03;;;24.40;54.79
41531;BME280;58990;46.284;13.126;2022-08-30T06:42:49;99607.28;;;24.80;53.75
41531;BME280;58990;46.284;13.126;2022-08-30T06:45:16;99599.25;;;25.16;51.72
41531;BME280;58990;46.284;13.126;2022-08-30T06:47:42;99605.41;;;25.48;51.59
41531;BME280;58990;46.284;13.126;2022-08-30T06:50:10;99601.28;;;25.92;49.77
41531;BME280;58990;46.284;13.126;2022-08-30T06:52:36;99598.63;;;25.81;49.92
41531;BME280;58990;46.284;13.126;2022-08-30T06:55:04;99598.63;;;25.86;50.59
41531;BME280;58990;46.284;13.126;2022-08-30T06:57:30;99592.47;;;25.81;49.59
41531;BME280;58990;46.284;13.126;2022-08-30T06:59:58;99593.19;;;26.02;50.12
41531;BME280;58990;46.284;13.126;2022-08-30T07:02:24;99590.09;;;26.34;48.79
41531;BME280;58990;46.284;13.126;2022-08-30T07:04:51;99590.72;;;26.21;48.95
41531;BME280;58990;46.284;13.126;2022-08-30T07:07:19;99599.88;;;26.20;49.88
41531;BME280;58990;46.284;13.126;2022-08-30T07:09:45;99594.56;;;26.55;49.98
41531;BME280;58990;46.284;13.126;2022-08-30T07:12:18;99587.63;;;26.88;48.75
41531;BME280;58990;46.284;13.126;2022-08-30T07:14:44;99582.31;;;27.12;46.92
41531;BME280;58990;46.284;13.126;2022-08-30T07:17:09;99581.47;;;26.88;47.03
41531;BME280;58990;46.284;13.126;2022-08-30T07:19:55;99573.88;;;26.90;47.54
41531;BME280;58990;46.284;13.126;2022-08-30T07:22:23;99577.19;;;27.16;47.17
41531;BME280;58990;46.284;13.126;2022-08-30T07:24:49;99579.84;;;27.21;47.87
41531;BME280;58990;46.284;13.126;2022-08-30T07:27:14;99581.16;;;27.53;45.54
41531;BME280;58990;46.284;13.126;2022-08-30T07:29:40;99580.25;;;27.63;45.28
41531;BME280;58990;46.284;13.126;2022-08-30T07:32:06;99579.66;;;27.90;45.17
41531;BME280;58990;46.284;13.126;2022-08-30T07:34:34;99575.78;;;28.01;44.81
41531;BME280;58990;46.284;13.126;2022-08-30T07:37:00;99574.13;;;28.25;44.46
41531;BME280;58990;46.284;13.126;2022-08-30T07:39:26;99573.00;;;27.82;44.62
41531;BME280;58990;46.284;13.126;2022-08-30T07:41:51;99579.44;;;27.86;44.80
41531;BME280;58990;46.284;13.126;2022-08-30T07:44:17;99566.34;;;27.99;45.35
41531;BME280;58990;46.284;13.126;2022-08-30T07:46:42;99563.69;;;27.94;45.05
41531;BME280;58990;46.284;13.126;2022-08-30T07:49:08;99553.72;;;28.18;45.83
41531;BME280;58990;46.284;13.126;2022-08-30T07:51:36;99559.63;;;28.59;44.42
41531;BME280;58990;46.284;13.126;2022-08-30T07:54:02;99560.59;;;29.01;42.78
41531;BME280;58990;46.284;13.126;2022-08-30T07:56:28;99558.72;;;29.15;42.98
41531;BME280;58990;46.284;13.126;2022-08-30T07:58:54;99559.78;;;29.33;41.58
41531;BME280;58990;46.284;13.126;2022-08-30T08:01:20;99561.19;;;29.45;41.19
41531;BME280;58990;46.284;13.126;2022-08-30T08:03:47;99550.75;;;29.80;41.94
41531;BME280;58990;46.284;13.126;2022-08-30T08:06:16;99554.00;;;30.46;41.06
41531;BME280;58990;46.284;13.126;2022-08-30T08:08:43;99555.19;;;30.40;40.44
41531;BME280;58990;46.284;13.126;2022-08-30T08:11:19;99543.53;;;30.76;39.86
41531;BME280;58990;46.284;13.126;2022-08-30T08:13:46;99548.31;;;30.20;40.20
41531;BME280;58990;46.284;13.126;2022-08-30T08:16:12;99547.16;;;30.72;39.63
41531;BME280;58990;46.284;13.126;2022-08-30T08:18:38;99542.78;;;30.62;38.97
41531;BME280;58990;46.284;13.126;2022-08-30T08:21:03;99543.66;;;30.71;39.62
41531;BME280;58990;46.284;13.126;2022-08-30T08:23:29;99541.97;;;30.84;40.30
41531;BME280;58990;46.284;13.126;2022-08-30T08:25:54;99540.00;;;31.30;38.30
41531;BME280;58990;46.284;13.126;2022-08-30T08:28:22;99548.91;;;31.22;38.57
41531;BME280;58990;46.284;13.126;2022-08-30T08:30:49;99540.19;;;30.79;38.93
41531;BME280;58990;46.284;13.126;2022-08-30T08:33:15;99542.88;;;31.25;38.95
41531;BME280;58990;46.284;13.126;2022-08-30T08:35:41;99548.66;;;31.41;39.25
41531;BME280;58990;46.284;13.126;2022-08-30T08:38:07;99537.34;;;31.79;38.33
41531;BME280;58990;46.284;13.126;2022-08-30T08:40:42;99541.09;;;32.18;37.16
41531;BME280;58990;46.284;13.126;2022-08-30T08:43:14;99538.19;;;32.49;37.20
41531;BME280;58990;46.284;13.126;2022-08-30T08:51:33;99536.91;;;32.03;38.05
41531;BME280;58990;46.284;13.126;2022-08-30T08:54:37;99542.78;;;31.07;37.99
41531;BME280;58990;46.284;13.126;2022-08-30T08:57:04;99543.53;;;30.76;39.61
41531;BME280;58990;46.284;13.126;2022-08-30T08:59:30;99544.88;;;30.87;39.35
41531;BME280;58990;46.284;13.126;2022-08-30T09:02:00;99548.00;;;31.35;37.79
41531;BME280;58990;46.284;13.126;2022-08-30T09:04:33;99544.38;;;31.89;36.67
41531;BME280;58990;46.284;13.126;2022-08-30T09:07:08;99554.00;;;32.65;35.41
41531;BME280;58990;46.284;13.126;2022-08-30T09:09:39;99550.03;;;32.45;35.22
41531;BME280;58990;46.284;13.126;2022-08-30T09:12:07;99541.09;;;32.35;35.23
41531;BME280;58990;46.284;13.126;2022-08-30T09:14:43;99540.28;;;32.35;34.59
41531;BME280;58990;46.284;13.126;2022-08-30T09:17:13;99546.19;;;32.46;35.24
41531;BME280;58990;46.284;13.126;2022-08-30T09:22:37;99541.78;;;33.06;33.89
41531;BME280;58990;46.284;13.126;2022-08-30T09:27:45;99543.50;;;33.19;34.18
41531;BME280;58990;46.284;13.126;2022-08-30T09:30:27;99542.19;;;33.73;33.31
41531;BME280;58990;46.284;13.126;2022-08-30T09:40:56;99529.81;;;31.67;37.91
41531;BME280;58990;46.284;13.126;2022-08-30T09:51:39;99519.81;;;30.82;39.83
41531;BME280;58990;46.284;13.126;2022-08-30T09:54:21;99515.91;;;31.28;38.54
41531;BME280;58990;46.284;13.126;2022-08-30T10:02:46;99517.25;;;30.17;41.51
41531;BME280;58990;46.284;13.126;2022-08-30T10:13:48;99519.28;;;31.02;40.47
41531;BME280;58990;46.284;13.126;2022-08-30T10:25:05;99521.72;;;32.90;35.86
41531;BME280;58990;46.284;13.126;2022-08-30T10:27:42;99517.91;;;32.47;36.43
41531;BME280;58990;46.284;13.126;2022-08-30T10:30:13;99523.00;;;32.66;35.95
41531;BME280;58990;46.284;13.126;2022-08-30T10:35:26;99511.69;;;32.20;36.79
41531;BME280;58990;46.284;13.126;2022-08-30T10:38:05;99510.19;;;32.93;35.26
41531;BME280;58990;46.284;13.126;2022-08-30T10:46:10;99506.28;;;31.53;37.06
41531;BME280;58990;46.284;13.126;2022-08-30T10:48:42;99502.81;;;31.62;36.65
41531;BME280;58990;46.284;13.126;2022-08-30T10:51:17;99503.38;;;31.99;37.69
41531;BME280;58990;46.284;13.126;2022-08-30T10:53:51;99506.72;;;32.04;38.12
41531;BME280;58990;46.284;13.126;2022-08-30T10:56:21;99507.78;;;31.60;37.82
41531;BME280;58990;46.284;13.126;2022-08-30T10:58:49;99502.72;;;31.35;38.95
41531;BME280;58990;46.284;13.126;2022-08-30T11:15:34;99487.75;;;32.22;36.10
41531;BME280;58990;46.284;13.126;2022-08-30T11:18:10;99494.25;;;32.12;35.89
41531;BME280;58990;46.284;13.126;2022-08-30T11:20:43;99498.44;;;32.45;36.06
41531;BME280;58990;46.284;13.126;2022-08-30T11:26:00;99497.91;;;31.64;39.23
41531;BME280;58990;46.284;13.126;2022-08-30T11:33:57;99490.41;;;32.13;36.93
41531;BME280;58990;46.284;13.126;2022-08-30T11:39:33;99492.31;;;31.78;39.03
41531;BME280;58990;46.284;13.126;2022-08-30T11:42:23;99480.38;;;32.23;38.14
41531;BME280;58990;46.284;13.126;2022-08-30T11:44:49;99479.91;;;32.03;37.32
41531;BME280;58990;46.284;13.126;2022-08-30T11:47:36;99484.81;;;30.94;39.10
41531;BME280;58990;46.284;13.126;2022-08-30T11:50:25;99492.09;;;30.53;39.25
41531;BME280;58990;46.284;13.126;2022-08-30T12:06:56;99469.09;;;31.45;38.35
41531;BME280;58990;46.284;13.126;2022-08-30T12:12:11;99453.72;;;32.42;36.39
41531;BME280;58990;46.284;13.126;2022-08-30T12:14:55;99449.34;;;32.50;36.87
41531;BME280;58990;46.284;13.126;2022-08-30T12:20:27;99443.16;;;31.97;37.21
41531;BME280;58990;46.284;13.126;2022-08-30T12:22:54;99440.44;;;31.97;37.43
41531;BME280;58990;46.284;13.126;2022-08-30T12:25:32;99437.41;;;32.42;35.96
41531;BME280;58990;46.284;13.126;2022-08-30T12:28:09;99431.19;;;32.07;37.35
41531;BME280;58990;46.284;13.126;2022-08-30T12:30:35;99436.03;;;32.83;35.13
41531;BME280;58990;46.284;13.126;2022-08-30T12:33:04;99432.25;;;31.44;37.96
41531;BME280;58990;46.284;13.126;2022-08-30T12:35:30;99429.44;;;31.84;37.48
41531;BME280;58990;46.284;13.126;2022-08-30T12:38:02;99424.34;;;32.18;37.14
41531;BME280;58990;46.284;13.126;2022-08-30T12:40:31;99414.91;;;31.98;37.33
41531;BME280;58990;46.284;13.126;2022-08-30T12:43:02;99411.84;;;32.08;36.92
41531;BME280;58990;46.284;13.126;2022-08-30T12:45:44;99397.81;;;32.24;37.12
41531;BME280;58990;46.284;13.126;2022-08-30T12:48:14;99394.97;;;31.85;35.73
41531;BME280;58990;46.284;13.126;2022-08-30T12:50:48;99390.09;;;31.38;37.43
41531;BME280;58990;46.284;13.126;2022-08-30T12:56:07;99387.16;;;31.75;36.74
41531;BME280;58990;46.284;13.126;2022-08-30T13:03:58;99375.28;;;31.27;35.68
41531;BME280;58990;46.284;13.126;2022-08-30T13:12:23;99369.72;;;31.49;37.51
41531;BME280;58990;46.284;13.126;2022-08-30T13:14:49;99360.72;;;31.05;38.87
41531;BME280;58990;46.284;13.126;2022-08-30T13:22:38;99356.47;;;31.39;37.94
41531;BME280;58990;46.284;13.126;2022-08-30T13:25:06;99344.03;;;31.20;38.34
41531;BME280;58990;46.284;13.126;2022-08-30T13:27:35;99340.03;;;31.18;38.71
41531;BME280;58990;46.284;13.126;2022-08-30T13:30:13;99343.22;;;30.80;38.42
41531;BME280;58990;46.284;13.126;2022-08-30T13:32:40;99345.28;;;30.74;38.82
41531;BME280;58990;46.284;13.126;2022-08-30T13:35:07;99349.47;;;30.80;38.91
41531;BME280;58990;46.284;13.126;2022-08-30T13:37:33;99343.69;;;30.73;39.18
41531;BME280;58990;46.284;13.126;2022-08-30T13:40:00;99340.69;;;30.75;39.04
41531;BME280;58990;46.284;13.126;2022-08-30T13:42:25;99339.47;;;30.90;38.75
41531;BME280;58990;46.284;13.126;2022-08-30T13:44:51;99328.75;;;30.84;39.50
41531;BME280;58990;46.284;13.126;2022-08-30T13:47:17;99328.81;;;31.02;39.68
41531;BME280;58990;46.284;13.126;2022-08-30T13:49:43;99333.97;;;31.30;38.60
41531;BME280;58990;46.284;13.126;2022-08-30T13:52:12;99337.31;;;31.18;38.69
41531;BME280;58990;46.284;13.126;2022-08-30T13:54:39;99339.22;;;31.35;37.68
41531;BME280;58990;46.284;13.126;2022-08-30T13:57:05;99340.66;;;31.32;37.74
41531;BME280;58990;46.284;13.126;2022-08-30T13:59:30;99332.63;;;31.01;37.71
41531;BME280;58990;46.284;13.126;2022-08-30T14:02:00;99324.72;;;31.31;38.08
41531;BME280;58990;46.284;13.126;2022-08-30T14:04:27;99324.09;;;31.51;38.75
41531;BME280;58990;46.284;13.126;2022-08-30T14:06:53;99323.28;;;31.51;37.74
41531;BME280;58990;46.284;13.126;2022-08-30T14:09:18;99324.72;;;31.31;38.27
41531;BME280;58990;46.284;13.126;2022-08-30T14:11:44;99335.22;;;31.06;38.72
41531;BME280;58990;46.284;13.126;2022-08-30T14:14:10;99335.56;;;30.73;39.37
41531;BME280;58990;46.284;13.126;2022-08-30T14:16:38;99328.00;;;30.52;39.43
41531;BME280;58990;46.284;13.126;2022-08-30T14:19:04;99326.91;;;30.31;40.02
41531;BME280;58990;46.284;13.126;2022-08-30T14:21:30;99319.78;;;30.35;38.86
41531;BME280;58990;46.284;13.126;2022-08-30T14:23:56;99315.44;;;30.25;40.65
41531;BME280;58990;46.284;13.126;2022-08-30T14:26:35;99316.53;;;30.56;40.16
41531;BME280;58990;46.284;13.126;2022-08-30T14:29:05;99316.00;;;30.76;39.49
41531;BME280;58990;46.284;13.126;2022-08-30T14:31:31;99302.00;;;30.92;39.74
41531;BME280;58990;46.284;13.126;2022-08-30T14:33:56;99315.53;;;30.83;39.13
41531;BME280;58990;46.284;13.126;2022-08-30T14:36:22;99308.59;;;30.59;39.14
41531;BME280;58990;46.284;13.126;2022-08-30T14:38:47;99299.88;;;30.80;39.16
41531;BME280;58990;46.284;13.126;2022-08-30T14:41:13;99300.66;;;30.63;39.42
41531;BME280;58990;46.284;13.126;2022-08-30T14:43:39;99303.41;;;30.40;40.45
41531;BME280;58990;46.284;13.126;2022-08-30T14:46:06;99304.03;;;30.37;41.06
41531;BME280;58990;46.284;13.126;2022-08-30T14:48:31;99302.09;;;30.29;40.87
41531;BME280;58990;46.284;13.126;2022-08-30T14:50:57;99302.44;;;30.36;40.38
41531;BME280;58990;46.284;13.126;2022-08-30T14:53:22;99306.34;;;30.21;40.45
41531;BME280;58990;46.284;13.126;2022-08-30T14:55:48;99301.63;;;30.04;40.43
41531;BME280;58990;46.284;13.126;2022-08-30T14:58:14;99297.50;;;29.84;41.63
41531;BME280;58990;46.284;13.126;2022-08-30T15:00:47;99295.31;;;29.86;41.20
41531;BME280;58990;46.284;13.126;2022-08-30T15:03:13;99282.31;;;29.74;42.35